createdAt,value
2023-02-11T00:01:06.988Z,102438.03
2023-02-11T00:03:33.931Z,102439.47
2023-02-11T00:06:01.879Z,102439.88
2023-02-11T00:08:28.856Z,102436.53
2023-02-11T00:10:56.917Z,102420.13
2023-02-11T00:13:24.792Z,102428.72
2023-02-11T00:15:51.620Z,102427.59
2023-02-11T00:18:18.417Z,102433.53
2023-02-11T00:20:44.983Z,102438.03
2023-02-11T00:23:11.870Z,102427.38
2023-02-11T00:25:40.787Z,102431.50
2023-02-11T00:28:07.715Z,102430.84
2023-02-11T00:30:34.808Z,102420.03
2023-02-11T00:33:01.757Z,102432.38
2023-02-11T00:35:29.540Z,102425.53
2023-02-11T00:37:56.615Z,102418.53
2023-02-11T00:40:24.134Z,102412.72
2023-02-11T00:42:51.044Z,102415.13
2023-02-11T00:45:17.740Z,102405.97
2023-02-11T00:47:45.698Z,102414.91
2023-02-11T00:50:12.660Z,102426.69
2023-02-11T00:52:39.261Z,102418.91
2023-02-11T00:55:06.280Z,102419.53
2023-02-11T00:57:32.879Z,102412.16
2023-02-11T00:59:59.410Z,102418.19
2023-02-11T01:02:26.146Z,102408.31
2023-02-11T01:04:52.709Z,102414.13
2023-02-11T01:07:19.613Z,102413.00
2023-02-11T01:09:46.147Z,102407.47
2023-02-11T01:12:12.752Z,102415.31
2023-02-11T01:14:40.896Z,102405.56
2023-02-11T01:17:07.573Z,102408.53
2023-02-11T01:19:34.183Z,102418.41
2023-02-11T01:22:00.798Z,102440.13
2023-02-11T01:24:27.395Z,102429.59
2023-02-11T01:26:54.336Z,102427.88
2023-02-11T01:29:24.353Z,102414.25
2023-02-11T01:31:54.650Z,102409.06
2023-02-11T01:34:21.264Z,102422.69
2023-02-11T01:36:47.846Z,102416.19
2023-02-11T01:39:14.512Z,102417.63
2023-02-11T01:41:41.132Z,102418.84
2023-02-11T01:44:22.921Z,102418.59
2023-02-11T01:46:49.926Z,102408.22
2023-02-11T01:49:25.661Z,102397.31
2023-02-11T01:51:58.679Z,102398.75
2023-02-11T01:54:50.213Z,102404.16
2023-02-11T01:57:24.902Z,102408.91
2023-02-11T02:00:15.732Z,102405.75
2023-02-11T02:02:58.614Z,102393.09
2023-02-11T02:05:48.918Z,102375.41
2023-02-11T02:08:25.638Z,102368.22
2023-02-11T02:10:56.354Z,102361.50
2023-02-11T02:13:24.207Z,102359.69
2023-02-11T02:15:54.908Z,102363.78
2023-02-11T02:18:36.326Z,102363.41
2023-02-11T02:21:11.922Z,102369.06
2023-02-11T02:24:15.942Z,102386.50
2023-02-11T02:27:10.118Z,102389.84
2023-02-11T02:29:55.225Z,102388.78
2023-02-11T02:32:24.585Z,102380.66
2023-02-11T02:34:58.088Z,102366.94
2023-02-11T02:37:34.713Z,102375.38
2023-02-11T02:40:07.937Z,102375.09
2023-02-11T02:42:35.277Z,102373.25
2023-02-11T02:45:02.021Z,102384.41
2023-02-11T02:47:28.779Z,102369.56
2023-02-11T02:49:55.283Z,102360.63
2023-02-11T02:52:39.180Z,102347.75
2023-02-11T02:55:20.462Z,102349.19
2023-02-11T02:58:04.589Z,102349.81
2023-02-11T03:00:54.319Z,102347.22
2023-02-11T03:03:30.376Z,102358.34
2023-02-11T03:06:04.162Z,102366.47
2023-02-11T03:08:40.469Z,102367.75
2023-02-11T03:11:09.390Z,102366.28
2023-02-11T03:13:39.233Z,102364.50
2023-02-11T03:16:27.021Z,102371.16
2023-02-11T03:19:01.751Z,102362.34
2023-02-11T03:21:33.157Z,102370.63
2023-02-11T03:24:05.776Z,102378.38
2023-02-11T03:26:46.758Z,102378.47
2023-02-11T03:29:55.321Z,102374.81
2023-02-11T03:32:31.841Z,102375.25
2023-02-11T03:35:03.898Z,102364.91
2023-02-11T03:37:43.403Z,102361.50
2023-02-11T03:40:11.737Z,102357.28
2023-02-11T03:42:44.444Z,102363.09
2023-02-11T03:45:17.076Z,102353.44
2023-02-11T03:47:49.209Z,102353.06
2023-02-11T03:50:17.195Z,102346.53
2023-02-11T03:52:44.129Z,102350.19
2023-02-11T03:55:18.356Z,102349.13
2023-02-11T03:57:45.348Z,102337.53
2023-02-11T04:00:12.696Z,102338.00
2023-02-11T04:02:40.708Z,102344.03
2023-02-11T04:05:09.951Z,102352.25
2023-02-11T04:07:36.481Z,102356.06
2023-02-11T04:10:03.471Z,102363.09
2023-02-11T04:12:30.238Z,102357.34
2023-02-11T04:14:56.732Z,102361.59
2023-02-11T04:17:23.629Z,102366.78
2023-02-11T04:19:50.258Z,102370.38
2023-02-11T04:22:17.014Z,102368.25
2023-02-11T04:24:44.056Z,102355.41
2023-02-11T04:27:10.954Z,102364.38
2023-02-11T04:29:37.738Z,102367.38
2023-02-11T04:32:04.464Z,102379.66
2023-02-11T04:34:31.165Z,102375.19
2023-02-11T04:36:57.707Z,102383.91
2023-02-11T04:39:24.315Z,102379.91
2023-02-11T04:41:50.832Z,102380.22
2023-02-11T04:44:17.440Z,102382.28
2023-02-11T04:46:43.997Z,102378.97
2023-02-11T04:49:15.568Z,102359.78
2023-02-11T04:51:42.751Z,102361.91
2023-02-11T04:54:09.324Z,102360.31
2023-02-11T04:56:35.910Z,102363.31
2023-02-11T04:59:03.542Z,102373.75
2023-02-11T05:01:30.308Z,102372.94
2023-02-11T05:03:57.183Z,102366.22
2023-02-11T05:06:23.787Z,102369.59
2023-02-11T05:08:50.512Z,102375.78
2023-02-11T05:11:20.016Z,102370.47
2023-02-11T05:13:47.333Z,102366.72
2023-02-11T05:16:15.327Z,102363.81
2023-02-11T05:18:43.765Z,102363.69
2023-02-11T05:21:13.280Z,102372.06
2023-02-11T05:23:40.482Z,102365.75
2023-02-11T05:26:07.096Z,102370.72
2023-02-11T05:28:33.819Z,102357.56
2023-02-11T05:31:00.959Z,102360.31
2023-02-11T05:33:27.793Z,102357.44
2023-02-11T05:36:04.269Z,102355.47
2023-02-11T05:38:30.911Z,102353.78
2023-02-11T05:40:57.581Z,102348.03
2023-02-11T05:43:24.214Z,102342.50
2023-02-11T05:45:51.146Z,102339.41
2023-02-11T05:48:18.041Z,102337.66
2023-02-11T05:50:45.343Z,102342.19
2023-02-11T05:53:12.485Z,102342.88
2023-02-11T05:55:39.312Z,102357.06
2023-02-11T05:58:07.895Z,102348.63
2023-02-11T06:00:34.919Z,102355.53
2023-02-11T06:03:01.874Z,102350.31
2023-02-11T06:05:28.766Z,102353.25
2023-02-11T06:07:55.965Z,102354.50
2023-02-11T06:10:22.706Z,102348.22
2023-02-11T06:12:49.384Z,102349.28
2023-02-11T06:15:15.977Z,102352.97
2023-02-11T06:17:42.526Z,102349.03
2023-02-11T06:20:10.458Z,102348.56
2023-02-11T06:22:37.900Z,102355.31
2023-02-11T06:25:05.255Z,102360.19
2023-02-11T06:27:31.903Z,102361.72
2023-02-11T06:29:58.847Z,102351.38
2023-02-11T06:32:43.245Z,102357.59
2023-02-11T06:35:12.063Z,102363.31
2023-02-11T06:37:39.429Z,102362.81
2023-02-11T06:40:06.579Z,102359.34
2023-02-11T06:42:33.079Z,102352.94
2023-02-11T06:44:59.849Z,102357.66
2023-02-11T06:47:26.380Z,102356.66
2023-02-11T06:49:52.941Z,102359.66
2023-02-11T06:52:19.462Z,102352.22
2023-02-11T06:54:46.105Z,102360.50
2023-02-11T06:57:12.662Z,102364.78
2023-02-11T06:59:39.602Z,102378.16
2023-02-11T07:02:06.233Z,102372.91
2023-02-11T07:04:33.117Z,102366.97
2023-02-11T07:06:59.716Z,102375.72
2023-02-11T07:09:26.557Z,102379.97
2023-02-11T07:11:53.070Z,102367.16
2023-02-11T07:14:19.750Z,102375.47
2023-02-11T07:16:46.438Z,102373.69
2023-02-11T07:19:13.013Z,102378.00
2023-02-11T07:21:40.020Z,102373.75
2023-02-11T07:24:10.761Z,102366.59
2023-02-11T07:26:38.526Z,102379.84
2023-02-11T07:29:05.549Z,102383.91
2023-02-11T07:31:32.425Z,102388.28
2023-02-11T07:34:00.870Z,102379.81
2023-02-11T07:36:29.229Z,102384.06
2023-02-11T07:38:55.899Z,102383.34
2023-02-11T07:41:23.972Z,102375.78
2023-02-11T07:43:51.465Z,102373.31
2023-02-11T07:46:26.778Z,102385.63
2023-02-11T07:48:53.605Z,102375.88
2023-02-11T07:51:29.512Z,102390.41
2023-02-11T07:53:58.261Z,102379.16
2023-02-11T07:56:25.676Z,102382.41
2023-02-11T07:58:53.050Z,102389.16
2023-02-11T08:01:24.904Z,102388.25
2023-02-11T08:03:52.316Z,102376.88
2023-02-11T08:06:21.540Z,102386.59
2023-02-11T08:08:49.190Z,102385.84
2023-02-11T08:11:22.548Z,102389.13
2023-02-11T08:13:50.078Z,102404.69
2023-02-11T08:16:23.574Z,102399.34
2023-02-11T08:18:51.665Z,102410.63
2023-02-11T08:21:19.659Z,102408.06
2023-02-11T08:23:47.153Z,102404.75
2023-02-11T08:26:16.851Z,102410.25
2023-02-11T08:28:45.732Z,102415.31
2023-02-11T08:31:19.614Z,102420.59
2023-02-11T08:33:47.044Z,102411.91
2023-02-11T08:36:19.308Z,102427.94
2023-02-11T08:38:46.887Z,102418.88
2023-02-11T08:41:14.921Z,102421.81
2023-02-11T08:43:43.434Z,102428.00
2023-02-11T08:46:14.314Z,102423.91
2023-02-11T08:48:41.459Z,102418.19
2023-02-11T08:51:10.063Z,102419.66
2023-02-11T08:53:37.230Z,102434.47
2023-02-11T08:56:03.986Z,102438.84
2023-02-11T08:58:30.587Z,102441.13
2023-02-11T09:00:57.100Z,102441.56
2023-02-11T09:03:24.156Z,102444.09
2023-02-11T09:05:53.140Z,102437.13
2023-02-11T09:08:21.057Z,102442.47
2023-02-11T09:10:48.106Z,102446.47
2023-02-11T09:13:16.899Z,102449.31
2023-02-11T09:15:46.810Z,102446.34
2023-02-11T09:18:14.232Z,102454.88
2023-02-11T09:20:40.905Z,102453.00
2023-02-11T09:23:07.561Z,102452.97
2023-02-11T09:25:34.606Z,102468.63
2023-02-11T09:28:01.306Z,102468.44
2023-02-11T09:30:27.976Z,102454.56
2023-02-11T09:32:54.580Z,102469.78
2023-02-11T09:35:21.179Z,102465.56
2023-02-11T09:37:47.748Z,102467.34
2023-02-11T09:40:15.765Z,102471.91
2023-02-11T09:42:50.758Z,102470.97
2023-02-11T09:45:29.365Z,102483.56
2023-02-11T09:47:57.958Z,102476.16
2023-02-11T09:50:43.254Z,102483.81
2023-02-11T09:53:25.141Z,102488.16
2023-02-11T09:55:59.622Z,102485.88
2023-02-11T09:58:30.232Z,102494.22
2023-02-11T10:01:30.603Z,102491.38
2023-02-11T10:04:25.000Z,102488.19
2023-02-11T10:06:55.081Z,102486.34
2023-02-11T10:09:37.311Z,102491.88
2023-02-11T10:12:31.646Z,102494.00
2023-02-11T10:15:07.168Z,102494.41
2023-02-11T10:17:52.553Z,102491.13
2023-02-11T10:20:37.986Z,102509.16
2023-02-11T10:23:15.207Z,102508.66
2023-02-11T10:25:49.121Z,102511.97
2023-02-11T10:28:24.978Z,102511.16
2023-02-11T10:31:09.657Z,102514.91
2023-02-11T10:34:05.408Z,102513.94
2023-02-11T10:36:38.279Z,102520.69
2023-02-11T10:39:23.543Z,102519.16
2023-02-11T10:41:57.996Z,102512.84
2023-02-11T10:44:26.949Z,102514.75
2023-02-11T10:46:54.579Z,102529.53
2023-02-11T10:49:35.326Z,102540.94
2023-02-11T10:52:25.968Z,102555.44
2023-02-11T10:55:17.656Z,102554.72
2023-02-11T10:57:57.928Z,102547.28
2023-02-11T11:00:37.086Z,102553.63
2023-02-11T11:03:15.248Z,102560.31
2023-02-11T11:06:01.987Z,102557.38
2023-02-11T11:08:50.579Z,102556.56
2023-02-11T11:11:25.606Z,102553.56
2023-02-11T11:13:52.376Z,102553.19
2023-02-11T11:16:27.997Z,102558.88
2023-02-11T11:19:20.377Z,102553.56
2023-02-11T11:21:55.244Z,102552.63
2023-02-11T11:24:29.430Z,102562.50
2023-02-11T11:27:00.816Z,102554.31
2023-02-11T11:29:28.635Z,102555.13
2023-02-11T11:32:00.679Z,102552.91
2023-02-11T11:34:32.062Z,102546.31
2023-02-11T11:37:00.566Z,102546.88
2023-02-11T11:39:32.783Z,102549.47
2023-02-11T11:42:25.141Z,102545.84
2023-02-11T11:45:01.720Z,102543.84
2023-02-11T11:47:43.559Z,102547.31
2023-02-11T11:50:30.748Z,102548.94
2023-02-11T11:53:04.394Z,102536.56
2023-02-11T11:55:42.059Z,102539.91
2023-02-11T11:58:23.040Z,102537.50
2023-02-11T12:01:23.633Z,102544.84
2023-02-11T12:04:03.952Z,102546.84
2023-02-11T12:06:53.838Z,102535.41
2023-02-11T12:09:31.397Z,102535.72
2023-02-11T12:12:23.508Z,102538.19
2023-02-11T12:15:08.247Z,102543.63
2023-02-11T12:17:50.814Z,102540.41
2023-02-11T12:20:26.014Z,102533.25
2023-02-11T12:23:31.940Z,102530.44
2023-02-11T12:26:12.405Z,102527.97
2023-02-11T12:29:07.588Z,102530.16
2023-02-11T12:31:47.097Z,102526.28
2023-02-11T12:34:40.470Z,102516.50
2023-02-11T12:37:24.717Z,102524.19
2023-02-11T12:39:56.734Z,102512.41
2023-02-11T12:42:48.333Z,102515.97
2023-02-11T12:45:33.654Z,102504.78
2023-02-11T12:48:38.045Z,102501.00
2023-02-11T12:51:16.835Z,102507.50
2023-02-11T12:54:14.221Z,102511.00
2023-02-11T12:57:02.249Z,102509.28
2023-02-11T13:00:08.777Z,102521.31
2023-02-11T13:02:47.385Z,102511.94
2023-02-11T13:05:19.621Z,102513.44
2023-02-11T13:07:47.991Z,102506.50
2023-02-11T13:10:15.423Z,102512.09
2023-02-11T13:13:05.162Z,102519.94
2023-02-11T13:15:32.889Z,102516.84
2023-02-11T13:18:09.038Z,102520.72
2023-02-11T13:20:58.843Z,102508.97
2023-02-11T13:23:50.265Z,102505.50
2023-02-11T13:26:25.016Z,102503.94
2023-02-11T13:28:56.216Z,102511.69
2023-02-11T13:31:26.943Z,102513.50
2023-02-11T13:33:53.781Z,102495.63
2023-02-11T13:36:23.137Z,102499.19
2023-02-11T13:38:56.483Z,102497.59
2023-02-11T13:41:28.389Z,102501.97
2023-02-11T13:44:08.600Z,102494.88
2023-02-11T13:46:57.186Z,102500.44
2023-02-11T13:49:26.222Z,102501.03
2023-02-11T13:51:54.232Z,102501.09
2023-02-11T13:54:34.525Z,102493.06
2023-02-11T13:57:19.446Z,102489.88
2023-02-11T13:59:55.610Z,102495.31
2023-02-11T14:02:50.008Z,102500.63
2023-02-11T14:05:51.689Z,102506.34
2023-02-11T14:08:40.167Z,102499.34
2023-02-11T14:11:32.482Z,102506.34
2023-02-11T14:14:08.134Z,102517.56
2023-02-11T14:16:38.257Z,102508.94
2023-02-11T14:19:06.346Z,102503.31
2023-02-11T14:21:39.646Z,102500.94
2023-02-11T14:24:06.905Z,102504.50
2023-02-11T14:27:01.589Z,102508.31
2023-02-11T14:29:36.126Z,102517.41
2023-02-11T14:32:08.857Z,102513.53
2023-02-11T14:35:00.509Z,102502.69
2023-02-11T14:37:49.338Z,102499.25
2023-02-11T14:40:34.785Z,102497.22
2023-02-11T14:43:20.868Z,102497.84
2023-02-11T14:45:55.084Z,102502.50
2023-02-11T14:48:29.368Z,102514.97
2023-02-11T14:51:03.467Z,102514.59
2023-02-11T14:53:33.105Z,102516.91
2023-02-11T14:56:00.112Z,102512.44
2023-02-11T14:58:32.170Z,102512.00
2023-02-11T15:01:00.677Z,102513.03
2023-02-11T15:03:38.985Z,102495.34
2023-02-11T15:06:27.929Z,102498.53
2023-02-11T15:09:02.594Z,102502.34
2023-02-11T15:11:34.057Z,102502.84
2023-02-11T15:14:26.998Z,102508.28
2023-02-11T15:16:58.696Z,102510.41
2023-02-11T15:19:38.425Z,102520.25
2023-02-11T15:22:21.776Z,102508.84
2023-02-11T15:25:07.714Z,102513.25
2023-02-11T15:27:38.050Z,102521.06
2023-02-11T15:30:23.764Z,102521.69
2023-02-11T15:32:53.756Z,102527.88
2023-02-11T15:35:20.388Z,102532.66
2023-02-11T15:37:48.951Z,102528.38
2023-02-11T15:40:24.753Z,102533.09
2023-02-11T15:43:06.320Z,102534.75
2023-02-11T15:45:34.449Z,102529.00
2023-02-11T15:48:20.125Z,102537.22
2023-02-11T15:50:58.541Z,102536.97
2023-02-11T15:53:43.179Z,102533.41
2023-02-11T15:56:26.583Z,102535.38
2023-02-11T15:58:56.701Z,102536.06
2023-02-11T16:01:35.608Z,102537.72
2023-02-11T16:04:05.467Z,102532.09
2023-02-11T16:06:40.507Z,102540.38
2023-02-11T16:09:11.047Z,102532.53
2023-02-11T16:11:57.892Z,102537.56
2023-02-11T16:14:39.157Z,102554.69
2023-02-11T16:17:10.918Z,102547.75
2023-02-11T16:19:45.128Z,102551.88
2023-02-11T16:22:17.587Z,102568.16
2023-02-11T16:24:47.506Z,102564.84
2023-02-11T16:27:20.211Z,102574.47
2023-02-11T16:29:49.333Z,102570.16
2023-02-11T16:32:25.603Z,102570.25
2023-02-11T16:34:53.797Z,102572.78
2023-02-11T16:37:20.368Z,102571.03
2023-02-11T16:39:47.097Z,102570.41
2023-02-11T16:42:13.624Z,102580.56
2023-02-11T16:44:40.421Z,102581.22
2023-02-11T16:47:17.444Z,102583.22
2023-02-11T16:49:44.182Z,102594.19
2023-02-11T16:52:16.645Z,102591.25
2023-02-11T16:54:43.251Z,102573.72
2023-02-11T16:57:18.891Z,102579.59
2023-02-11T16:59:46.502Z,102571.34
2023-02-11T17:02:18.426Z,102582.75
2023-02-11T17:04:45.162Z,102582.91
2023-02-11T17:07:12.322Z,102580.00
2023-02-11T17:09:39.251Z,102587.19
2023-02-11T17:12:06.162Z,102586.88
2023-02-11T17:14:32.784Z,102593.31
2023-02-11T17:16:59.325Z,102593.31
2023-02-11T17:19:26.423Z,102601.06
2023-02-11T17:21:53.572Z,102604.34
2023-02-11T17:24:21.568Z,102601.72
2023-02-11T17:26:48.957Z,102597.81
2023-02-11T17:29:19.606Z,102599.78
2023-02-11T17:31:46.283Z,102599.06
2023-02-11T17:34:12.950Z,102603.88
2023-02-11T17:36:41.273Z,102605.91
2023-02-11T17:39:08.846Z,102605.50
2023-02-11T17:41:39.746Z,102607.91
2023-02-11T17:44:08.412Z,102613.13
2023-02-11T17:46:35.725Z,102612.09
2023-02-11T17:49:03.289Z,102625.16
2023-02-11T17:51:35.326Z,102622.78
2023-02-11T17:54:06.385Z,102630.28
2023-02-11T17:56:34.430Z,102646.03
2023-02-11T17:59:02.352Z,102637.41
2023-02-11T18:01:29.981Z,102637.53
2023-02-11T18:03:56.506Z,102637.84
2023-02-11T18:06:23.241Z,102640.72
2023-02-11T18:08:49.863Z,102639.94
2023-02-11T18:11:16.824Z,102649.16
2023-02-11T18:13:45.128Z,102640.81
2023-02-11T18:16:15.735Z,102639.25
2023-02-11T18:18:45.381Z,102639.91
2023-02-11T18:21:15.765Z,102645.06
2023-02-11T18:23:43.073Z,102643.91
2023-02-11T18:26:11.956Z,102655.75
2023-02-11T18:28:39.490Z,102645.41
2023-02-11T18:31:07.824Z,102648.94
2023-02-11T18:33:36.389Z,102659.44
2023-02-11T18:36:07.826Z,102652.66
2023-02-11T18:38:35.292Z,102660.25
2023-02-11T18:41:02.124Z,102665.88
2023-02-11T18:43:31.656Z,102669.47
2023-02-11T18:45:58.311Z,102669.31
2023-02-11T18:48:26.981Z,102665.50
2023-02-11T18:50:54.534Z,102675.72
2023-02-11T18:53:22.082Z,102665.88
2023-02-11T18:55:49.058Z,102681.59
2023-02-11T18:58:15.797Z,102679.72
2023-02-11T19:00:45.586Z,102686.63
2023-02-11T19:03:12.679Z,102683.91
2023-02-11T19:05:47.493Z,102674.91
2023-02-11T19:08:15.293Z,102686.38
2023-02-11T19:10:44.055Z,102678.47
2023-02-11T19:13:11.552Z,102688.44
2023-02-11T19:15:42.762Z,102692.16
2023-02-11T19:18:10.571Z,102692.28
2023-02-11T19:20:42.210Z,102693.84
2023-02-11T19:23:09.427Z,102694.84
2023-02-11T19:25:36.034Z,102690.97
2023-02-11T19:28:03.326Z,102700.41
2023-02-11T19:30:30.092Z,102700.34
2023-02-11T19:32:57.557Z,102701.59
2023-02-11T19:35:25.195Z,102709.41
2023-02-11T19:37:52.071Z,102709.34
2023-02-11T19:40:21.041Z,102706.09
2023-02-11T19:42:47.680Z,102710.66
2023-02-11T19:45:14.291Z,102717.00
2023-02-11T19:47:40.954Z,102708.63
2023-02-11T19:50:08.716Z,102718.94
2023-02-11T19:52:38.219Z,102717.81
2023-02-11T19:55:05.307Z,102729.47
2023-02-11T19:57:31.943Z,102726.28
2023-02-11T19:59:58.697Z,102723.75
2023-02-11T20:02:25.394Z,102721.25
2023-02-11T20:04:51.911Z,102733.34
2023-02-11T20:07:18.629Z,102729.94
2023-02-11T20:09:45.362Z,102737.75
2023-02-11T20:12:12.155Z,102729.94
2023-02-11T20:14:38.986Z,102732.09
2023-02-11T20:17:05.558Z,102739.06
2023-02-11T20:19:32.290Z,102735.59
2023-02-11T20:21:59.010Z,102736.47
2023-02-11T20:24:25.658Z,102736.22
2023-02-11T20:26:55.382Z,102739.88
2023-02-11T20:29:23.517Z,102729.41
2023-02-11T20:31:50.951Z,102737.50
2023-02-11T20:34:18.664Z,102750.22
2023-02-11T20:36:51.534Z,102755.25
2023-02-11T20:39:21.526Z,102755.03
2023-02-11T20:41:48.424Z,102752.47
2023-02-11T20:44:15.148Z,102759.13
2023-02-11T20:46:48.155Z,102751.44
2023-02-11T20:49:18.683Z,102751.22
2023-02-11T20:51:46.292Z,102762.34
2023-02-11T20:54:16.082Z,102770.41
2023-02-11T20:56:44.508Z,102774.00
2023-02-11T20:59:13.895Z,102765.25
2023-02-11T21:01:43.969Z,102775.28
2023-02-11T21:04:13.279Z,102783.72
2023-02-11T21:06:45.206Z,102784.25
2023-02-11T21:09:14.912Z,102779.06
2023-02-11T21:11:42.425Z,102779.88
2023-02-11T21:14:10.201Z,102780.19
2023-02-11T21:16:36.822Z,102769.91
2023-02-11T21:19:04.268Z,102771.75
2023-02-11T21:21:35.772Z,102768.63
2023-02-11T21:24:02.561Z,102774.75
2023-02-11T21:26:29.860Z,102782.81
2023-02-11T21:28:56.473Z,102784.75
2023-02-11T21:31:30.488Z,102777.53
2023-02-11T21:33:59.371Z,102775.69
2023-02-11T21:36:27.465Z,102776.50
2023-02-11T21:38:54.537Z,102786.59
2023-02-11T21:41:22.340Z,102776.00
2023-02-11T21:43:49.598Z,102784.38
2023-02-11T21:46:18.293Z,102787.03
2023-02-11T21:48:45.798Z,102783.47
2023-02-11T21:51:19.714Z,102781.03
2023-02-11T21:53:46.916Z,102777.56
2023-02-11T21:56:16.382Z,102785.41
2023-02-11T21:58:45.745Z,102780.78
2023-02-11T22:01:19.588Z,102776.97
2023-02-11T22:03:46.845Z,102783.59
2023-02-11T22:06:21.240Z,102785.22
2023-02-11T22:08:50.978Z,102782.19
2023-02-11T22:11:18.634Z,102785.78
2023-02-11T22:13:46.264Z,102794.13
2023-02-11T22:16:16.556Z,102793.88
2023-02-11T22:18:46.593Z,102782.22
2023-02-11T22:21:16.539Z,102788.50
2023-02-11T22:23:44.058Z,102794.34
2023-02-11T22:26:13.606Z,102795.38
2023-02-11T22:28:40.985Z,102791.94
2023-02-11T22:31:11.806Z,102798.31
2023-02-11T22:33:38.549Z,102798.94
2023-02-11T22:36:07.954Z,102806.63
2023-02-11T22:38:35.087Z,102801.13
2023-02-11T22:41:06.745Z,102813.88
2023-02-11T22:43:33.796Z,102807.56
2023-02-11T22:46:01.856Z,102813.56
2023-02-11T22:48:29.038Z,102816.94
2023-02-11T22:50:55.732Z,102816.31
2023-02-11T22:53:25.473Z,102829.56
2023-02-11T22:55:52.610Z,102815.88
2023-02-11T22:58:19.580Z,102821.50
2023-02-11T23:00:46.169Z,102824.44
2023-02-11T23:03:12.901Z,102829.75
2023-02-11T23:05:41.210Z,102825.16
2023-02-11T23:08:10.150Z,102834.41
2023-02-11T23:10:38.521Z,102836.94
2023-02-11T23:13:06.991Z,102840.38
2023-02-11T23:15:34.146Z,102837.41
2023-02-11T23:18:01.086Z,102848.25
2023-02-11T23:20:27.769Z,102844.47
2023-02-11T23:22:54.433Z,102850.94
2023-02-11T23:25:20.997Z,102848.97
2023-02-11T23:27:47.783Z,102847.88
2023-02-11T23:30:14.596Z,102850.94
2023-02-11T23:32:41.499Z,102865.94
2023-02-11T23:35:08.552Z,102862.50
2023-02-11T23:37:35.510Z,102849.44
2023-02-11T23:40:02.121Z,102860.38
2023-02-11T23:42:29.142Z,102865.16
2023-02-11T23:44:55.965Z,102862.50
2023-02-11T23:47:22.775Z,102873.22
2023-02-11T23:49:49.450Z,102865.56
2023-02-11T23:52:16.441Z,102871.47
2023-02-11T23:54:43.326Z,102869.28
2023-02-11T23:57:10.019Z,102865.81
2023-02-11T23:59:36.727Z,102865.75
